createdAt,value
2022-10-31T00:01:14.793Z,7.80
2022-10-31T00:03:42.402Z,4.53
2022-10-31T00:06:09.925Z,6.10
2022-10-31T00:08:37.393Z,10.77
2022-10-31T00:11:05.181Z,6.85
2022-10-31T00:13:33.376Z,7.43
2022-10-31T00:16:00.865Z,8.13
2022-10-31T00:18:29.731Z,8.40
2022-10-31T00:21:01.366Z,5.95
2022-10-31T00:23:28.816Z,10.18
2022-10-31T00:25:56.470Z,7.32
2022-10-31T00:28:23.984Z,7.45
2022-10-31T00:30:51.432Z,7.13
2022-10-31T00:33:18.909Z,6.70
2022-10-31T00:35:52.640Z,7.45
2022-10-31T00:38:20.109Z,9.55
2022-10-31T00:40:47.529Z,6.05
2022-10-31T00:43:14.953Z,6.82
2022-10-31T00:45:43.312Z,5.60
2022-10-31T00:48:10.904Z,6.28
2022-10-31T00:50:39.076Z,4.50
2022-10-31T00:53:08.023Z,3.72
2022-10-31T00:55:35.768Z,9.32
2022-10-31T00:58:03.785Z,4.65
2022-10-31T01:00:31.596Z,5.53
2022-10-31T01:02:59.388Z,9.18
2022-10-31T01:05:27.151Z,6.90
2022-10-31T01:07:54.609Z,6.00
2022-10-31T01:10:23.567Z,7.30
2022-10-31T01:12:51.708Z,4.53
2022-10-31T01:15:21.679Z,6.80
2022-10-31T01:17:49.432Z,6.78
2022-10-31T01:20:18.388Z,5.25
2022-10-31T01:22:45.972Z,6.60
2022-10-31T01:25:13.997Z,4.43
2022-10-31T01:27:42.835Z,7.00
2022-10-31T01:30:11.209Z,7.57
2022-10-31T01:32:38.657Z,8.20
2022-10-31T01:35:06.312Z,4.38
2022-10-31T01:37:33.791Z,9.45
2022-10-31T01:40:01.237Z,5.93
2022-10-31T01:42:28.688Z,9.27
2022-10-31T01:45:00.690Z,6.00
2022-10-31T01:47:47.595Z,9.00
2022-10-31T01:52:47.788Z,4.63
2022-10-31T01:55:19.885Z,8.30
2022-10-31T01:57:51.633Z,7.22
2022-10-31T02:00:22.008Z,5.68
2022-10-31T02:02:51.375Z,6.30
2022-10-31T02:05:22.025Z,5.95
2022-10-31T02:07:57.708Z,4.85
2022-10-31T02:10:25.750Z,7.45
2022-10-31T02:12:55.235Z,4.50
2022-10-31T02:15:24.244Z,5.63
2022-10-31T02:17:51.867Z,5.97
2022-10-31T02:20:22.223Z,8.77
2022-10-31T02:23:19.666Z,6.50
2022-10-31T02:26:27.912Z,3.95
2022-10-31T02:29:13.098Z,6.20
2022-10-31T02:31:47.914Z,6.57
2022-10-31T02:34:21.216Z,6.90
2022-10-31T02:36:58.205Z,4.53
2022-10-31T02:39:28.388Z,7.85
2022-10-31T02:42:11.418Z,4.15
2022-10-31T02:44:46.463Z,5.40
2022-10-31T02:47:17.889Z,5.95
2022-10-31T02:49:50.408Z,5.97
2022-10-31T02:52:21.135Z,4.20
2022-10-31T02:54:49.680Z,2.97
2022-10-31T02:59:49.308Z,5.28
2022-10-31T03:02:40.851Z,4.90
2022-10-31T03:05:23.068Z,3.53
2022-10-31T03:07:59.632Z,5.97
2022-10-31T03:10:37.580Z,3.72
2022-10-31T03:13:17.281Z,4.63
2022-10-31T03:15:46.919Z,4.07
2022-10-31T03:18:19.235Z,4.15
2022-10-31T03:20:52.323Z,5.03
2022-10-31T03:23:21.759Z,5.95
2022-10-31T03:25:50.672Z,3.55
2022-10-31T03:28:21.948Z,5.90
2022-10-31T03:30:51.500Z,4.97
2022-10-31T03:33:25.808Z,4.32
2022-10-31T03:35:56.687Z,4.13
2022-10-31T03:38:24.572Z,4.60
2022-10-31T03:40:55.698Z,4.30
2022-10-31T03:43:30.422Z,3.65
2022-10-31T03:48:28.116Z,6.57
2022-10-31T03:51:08.276Z,5.18
2022-10-31T03:53:41.819Z,6.65
2022-10-31T03:56:15.216Z,4.95
2022-10-31T03:58:49.645Z,10.80
2022-10-31T04:01:20.210Z,5.25
2022-10-31T04:03:50.180Z,4.90
2022-10-31T04:06:20.764Z,8.02
2022-10-31T04:08:53.488Z,5.00
2022-10-31T04:11:27.063Z,7.28
2022-10-31T04:13:55.527Z,6.38
2022-10-31T04:16:25.136Z,7.07
2022-10-31T04:18:54.131Z,5.78
2022-10-31T04:21:21.592Z,5.90
2022-10-31T04:23:49.064Z,11.43
2022-10-31T04:26:16.559Z,6.32
2022-10-31T04:28:44.025Z,5.32
2022-10-31T04:31:13.306Z,5.78
2022-10-31T04:33:40.776Z,6.80
2022-10-31T04:36:10.325Z,7.13
2022-10-31T04:38:37.796Z,8.32
2022-10-31T04:41:05.399Z,8.95
2022-10-31T04:43:32.864Z,6.03
2022-10-31T04:46:00.392Z,9.23
2022-10-31T04:48:27.881Z,7.68
2022-10-31T04:51:00.017Z,8.75
2022-10-31T04:53:29.063Z,6.85
2022-10-31T04:55:56.604Z,6.82
2022-10-31T04:58:26.220Z,6.68
2022-10-31T05:00:54.985Z,9.10
2022-10-31T05:03:22.505Z,9.30
2022-10-31T05:05:50.329Z,5.15
2022-10-31T05:08:17.882Z,7.68
2022-10-31T05:10:46.732Z,8.88
2022-10-31T05:13:15.595Z,4.97
2022-10-31T05:15:43.148Z,5.97
2022-10-31T05:18:10.636Z,4.75
2022-10-31T05:20:38.123Z,4.32
2022-10-31T05:23:05.603Z,5.13
2022-10-31T05:25:33.062Z,5.30
2022-10-31T05:28:02.271Z,5.15
2022-10-31T05:30:33.919Z,7.40
2022-10-31T05:33:02.122Z,6.30
2022-10-31T05:35:31.803Z,10.48
2022-10-31T05:38:00.275Z,7.63
2022-10-31T05:40:28.969Z,5.55
2022-10-31T05:42:59.489Z,4.70
2022-10-31T05:45:28.760Z,5.38
2022-10-31T05:47:57.951Z,7.03
2022-10-31T05:50:27.189Z,10.20
2022-10-31T05:52:58.998Z,7.78
2022-10-31T05:55:26.707Z,7.80
2022-10-31T05:57:54.512Z,7.38
2022-10-31T06:00:23.242Z,4.72
2022-10-31T06:02:59.125Z,5.97
2022-10-31T06:05:26.650Z,7.75
2022-10-31T06:07:54.106Z,4.65
2022-10-31T06:10:22.107Z,9.25
2022-10-31T06:12:49.652Z,4.93
2022-10-31T06:15:23.427Z,6.00
2022-10-31T06:18:01.785Z,5.85
2022-10-31T06:20:29.779Z,7.70
2022-10-31T06:22:57.722Z,6.55
2022-10-31T06:25:25.461Z,5.15
2022-10-31T06:27:53.000Z,7.18
2022-10-31T06:30:20.676Z,4.35
2022-10-31T06:32:48.142Z,4.25
2022-10-31T06:35:17.251Z,5.55
2022-10-31T06:37:46.863Z,6.05
2022-10-31T06:40:18.009Z,4.78
2022-10-31T06:42:45.470Z,7.78
2022-10-31T06:45:12.940Z,7.75
2022-10-31T06:47:56.680Z,4.72
2022-10-31T06:50:25.997Z,4.78
2022-10-31T06:52:53.911Z,6.15
2022-10-31T06:55:23.487Z,5.82
2022-10-31T06:57:56.509Z,5.90
2022-10-31T07:00:27.394Z,5.93
2022-10-31T07:02:56.268Z,4.53
2022-10-31T07:05:24.091Z,5.07
2022-10-31T07:07:55.713Z,4.97
2022-10-31T07:10:23.322Z,4.50
2022-10-31T07:12:50.804Z,6.80
2022-10-31T07:15:18.287Z,3.88
2022-10-31T07:17:45.744Z,4.50
2022-10-31T07:20:13.214Z,7.88
2022-10-31T07:22:40.719Z,5.13
2022-10-31T07:25:12.377Z,7.90
2022-10-31T07:27:42.796Z,5.93
2022-10-31T07:30:12.595Z,4.57
2022-10-31T07:32:41.098Z,5.50
2022-10-31T07:35:09.668Z,5.57
2022-10-31T07:40:05.544Z,5.35
2022-10-31T07:42:38.168Z,5.90
2022-10-31T07:45:06.726Z,5.43
2022-10-31T07:50:07.778Z,6.82
2022-10-31T07:52:35.269Z,5.93
2022-10-31T07:55:02.797Z,7.32
2022-10-31T07:57:34.408Z,9.80
2022-10-31T08:00:03.958Z,11.18
2022-10-31T08:02:31.476Z,7.35
2022-10-31T08:05:01.482Z,11.70
2022-10-31T08:07:30.304Z,10.43
2022-10-31T08:09:58.272Z,10.15
2022-10-31T08:12:25.723Z,9.15
2022-10-31T08:14:53.190Z,7.70
2022-10-31T08:17:22.053Z,9.50
2022-10-31T08:19:49.508Z,13.43
2022-10-31T08:22:17.087Z,10.55
2022-10-31T08:24:44.569Z,9.95
2022-10-31T08:27:12.057Z,10.50
2022-10-31T08:29:39.495Z,15.38
2022-10-31T08:32:07.018Z,14.73
2022-10-31T08:34:35.803Z,15.77
2022-10-31T08:37:03.277Z,19.63
2022-10-31T08:39:30.788Z,23.00
2022-10-31T08:41:58.239Z,16.25
2022-10-31T08:44:25.679Z,14.65
2022-10-31T08:46:53.164Z,13.85
2022-10-31T08:49:20.653Z,10.20
2022-10-31T08:51:50.593Z,9.43
2022-10-31T08:54:18.058Z,14.80
2022-10-31T08:56:45.549Z,11.98
2022-10-31T08:59:13.029Z,12.10
2022-10-31T09:01:40.590Z,15.35
2022-10-31T09:04:08.201Z,13.93
2022-10-31T09:06:37.935Z,13.68
2022-10-31T09:09:07.098Z,11.25
2022-10-31T09:11:34.548Z,14.48
2022-10-31T09:14:01.988Z,17.98
2022-10-31T09:16:29.478Z,19.33
2022-10-31T09:18:56.920Z,17.35
2022-10-31T09:21:24.421Z,17.58
2022-10-31T09:23:54.031Z,16.95
2022-10-31T09:26:22.900Z,18.25
2022-10-31T09:28:50.334Z,12.88
2022-10-31T09:31:17.812Z,14.20
2022-10-31T09:33:45.262Z,24.73
2022-10-31T09:36:12.720Z,18.58
2022-10-31T09:38:40.174Z,21.13
2022-10-31T09:41:15.593Z,19.17
2022-10-31T09:43:52.488Z,21.48
2022-10-31T09:46:28.443Z,16.33
2022-10-31T09:49:14.175Z,16.83
2022-10-31T09:51:50.477Z,14.63
2022-10-31T09:54:24.439Z,23.23
2022-10-31T09:56:51.948Z,14.35
2022-10-31T09:59:26.953Z,16.33
2022-10-31T10:01:59.533Z,20.85
2022-10-31T10:04:36.370Z,18.98
2022-10-31T10:07:16.326Z,25.23
2022-10-31T10:09:43.835Z,31.65
2022-10-31T10:12:21.240Z,29.70
2022-10-31T10:15:02.403Z,30.13
2022-10-31T10:17:41.228Z,27.23
2022-10-31T10:20:29.391Z,35.15
2022-10-31T10:23:16.692Z,27.73
2022-10-31T10:25:48.025Z,19.55
2022-10-31T10:28:22.242Z,17.75
2022-10-31T10:30:56.542Z,18.52
2022-10-31T10:33:28.735Z,30.33
2022-10-31T10:36:00.692Z,15.90
2022-10-31T10:38:34.029Z,17.27
2022-10-31T10:41:04.330Z,15.63
2022-10-31T10:43:35.172Z,16.70
2022-10-31T10:46:35.491Z,18.35
2022-10-31T10:49:13.509Z,16.88
2022-10-31T10:52:07.584Z,18.40
2022-10-31T10:54:48.589Z,16.75
2022-10-31T10:57:43.129Z,17.10
2022-10-31T11:00:20.659Z,18.80
2022-10-31T11:02:50.059Z,18.73
2022-10-31T11:05:25.647Z,18.38
2022-10-31T11:07:53.231Z,23.23
2022-10-31T11:10:20.725Z,22.48
2022-10-31T11:13:02.029Z,21.98
2022-10-31T11:15:32.712Z,20.27
2022-10-31T11:18:01.589Z,19.35
2022-10-31T11:20:32.866Z,23.75
2022-10-31T11:23:07.132Z,18.05
2022-10-31T11:28:03.997Z,19.42
2022-10-31T11:30:32.554Z,20.55
2022-10-31T11:33:01.738Z,20.52
2022-10-31T11:35:31.109Z,19.85
2022-10-31T11:38:03.329Z,19.73
2022-10-31T11:40:31.184Z,18.17
2022-10-31T11:43:00.687Z,16.98
2022-10-31T11:45:33.447Z,17.42
2022-10-31T11:48:04.449Z,17.60
2022-10-31T11:50:37.899Z,15.35
2022-10-31T11:53:06.008Z,16.95
2022-10-31T11:55:37.663Z,16.42
2022-10-31T11:58:06.499Z,16.27
2022-10-31T12:00:39.232Z,15.40
2022-10-31T12:03:15.253Z,20.73
2022-10-31T12:05:45.980Z,17.48
2022-10-31T12:08:15.326Z,19.13
2022-10-31T12:11:00.250Z,19.58
2022-10-31T12:13:35.749Z,19.90
2022-10-31T12:16:14.692Z,16.67
2022-10-31T12:18:57.988Z,16.38
2022-10-31T12:21:40.194Z,17.58
2022-10-31T12:24:17.574Z,14.35
2022-10-31T12:26:56.487Z,14.65
2022-10-31T12:29:46.097Z,17.45
2022-10-31T12:32:29.944Z,16.42
2022-10-31T12:35:11.913Z,18.92
2022-10-31T12:37:55.135Z,15.88
2022-10-31T12:40:40.742Z,16.17
2022-10-31T12:43:22.887Z,17.02
2022-10-31T12:45:56.604Z,15.25
2022-10-31T12:48:45.908Z,17.45
2022-10-31T12:51:22.631Z,17.00
2022-10-31T12:54:04.746Z,18.92
2022-10-31T12:56:44.706Z,20.52
2022-10-31T12:59:19.078Z,16.50
2022-10-31T13:01:52.957Z,21.10
2022-10-31T13:04:26.630Z,18.27
2022-10-31T13:06:59.570Z,16.08
2022-10-31T13:09:33.078Z,16.67
2022-10-31T13:12:05.034Z,16.35
2022-10-31T13:14:38.897Z,18.02
2022-10-31T13:17:08.400Z,13.73
2022-10-31T13:19:39.964Z,14.85
2022-10-31T13:22:14.680Z,14.82
2022-10-31T13:24:46.589Z,14.55
2022-10-31T13:27:17.875Z,16.08
2022-10-31T13:29:56.714Z,16.45
2022-10-31T13:32:24.586Z,17.50
2022-10-31T13:34:56.830Z,14.50
2022-10-31T13:37:32.985Z,18.10
2022-10-31T13:40:09.658Z,15.38
2022-10-31T13:42:51.572Z,11.13
2022-10-31T13:45:20.642Z,15.27
2022-10-31T13:47:59.159Z,16.40
2022-10-31T13:50:29.416Z,12.00
2022-10-31T13:53:15.402Z,13.57
2022-10-31T13:55:45.004Z,16.25
2022-10-31T13:58:25.198Z,14.70
2022-10-31T14:01:15.379Z,12.48
2022-10-31T14:06:39.391Z,14.50
2022-10-31T14:09:19.816Z,12.52
2022-10-31T14:11:49.405Z,12.48
2022-10-31T14:14:18.609Z,14.20
2022-10-31T14:16:50.917Z,13.27
2022-10-31T14:19:22.702Z,14.18
2022-10-31T14:21:51.888Z,15.02
2022-10-31T14:24:38.779Z,13.95
2022-10-31T14:27:46.310Z,13.65
2022-10-31T14:30:20.095Z,13.15
2022-10-31T14:32:53.164Z,17.05
2022-10-31T14:35:22.933Z,12.32
2022-10-31T14:38:07.229Z,15.43
2022-10-31T14:40:44.173Z,16.02
2022-10-31T14:43:38.722Z,15.48
2022-10-31T14:46:15.532Z,12.07
2022-10-31T14:49:03.809Z,19.00
2022-10-31T14:51:38.022Z,19.10
2022-10-31T14:54:07.579Z,16.73
2022-10-31T14:56:37.749Z,16.88
2022-10-31T14:59:10.907Z,12.70
2022-10-31T15:01:41.388Z,13.95
2022-10-31T15:04:23.777Z,17.02
2022-10-31T15:06:56.600Z,16.70
2022-10-31T15:09:25.806Z,13.48
2022-10-31T15:11:53.738Z,14.32
2022-10-31T15:14:28.805Z,14.13
2022-10-31T15:16:58.862Z,11.63
2022-10-31T15:19:28.009Z,14.52
2022-10-31T15:21:57.561Z,12.02
2022-10-31T15:24:30.158Z,13.88
2022-10-31T15:27:03.864Z,17.20
2022-10-31T15:29:34.097Z,13.82
2022-10-31T15:32:03.673Z,13.88
2022-10-31T15:34:38.588Z,12.63
2022-10-31T15:37:06.726Z,13.48
2022-10-31T15:39:35.289Z,12.70
2022-10-31T15:42:03.095Z,13.15
2022-10-31T15:44:35.361Z,9.90
2022-10-31T15:47:07.440Z,13.10
2022-10-31T15:49:38.098Z,13.95
2022-10-31T15:52:10.011Z,16.80
2022-10-31T15:54:44.438Z,14.40
2022-10-31T15:57:12.739Z,13.35
2022-10-31T15:59:43.997Z,12.57
2022-10-31T16:02:14.955Z,10.85
2022-10-31T16:04:51.291Z,9.20
2022-10-31T16:07:23.245Z,13.77
2022-10-31T16:09:53.384Z,13.40
2022-10-31T16:12:22.770Z,12.10
2022-10-31T16:14:51.974Z,15.25
2022-10-31T16:17:23.474Z,11.43
2022-10-31T16:19:55.934Z,13.27
2022-10-31T16:22:27.054Z,16.83
2022-10-31T16:24:59.115Z,13.48
2022-10-31T16:27:29.579Z,12.00
2022-10-31T16:30:04.954Z,12.05
2022-10-31T16:32:36.664Z,11.35
2022-10-31T16:35:20.810Z,10.90
2022-10-31T16:37:48.353Z,11.07
2022-10-31T16:40:16.788Z,15.02
2022-10-31T16:42:45.137Z,9.48
2022-10-31T16:47:46.097Z,10.65
2022-10-31T16:50:16.182Z,9.23
2022-10-31T16:53:08.455Z,9.38
2022-10-31T16:55:35.771Z,12.48
2022-10-31T16:58:04.276Z,10.35
2022-10-31T17:00:31.897Z,10.32
2022-10-31T17:03:00.740Z,10.55
2022-10-31T17:05:30.170Z,13.02
2022-10-31T17:07:58.464Z,11.95
2022-10-31T17:12:54.459Z,11.05
2022-10-31T17:15:25.417Z,8.82
2022-10-31T17:17:53.685Z,10.38
2022-10-31T17:20:24.342Z,8.90
2022-10-31T17:22:52.130Z,9.05
2022-10-31T17:25:22.681Z,13.73
2022-10-31T17:27:50.273Z,9.15
2022-10-31T17:30:19.150Z,9.10
2022-10-31T17:32:47.753Z,10.60
2022-10-31T17:35:16.154Z,7.85
2022-10-31T17:40:14.653Z,11.82
2022-10-31T17:42:42.247Z,7.53
2022-10-31T17:45:11.803Z,7.63
2022-10-31T17:47:39.340Z,8.05
2022-10-31T17:50:07.683Z,7.45
2022-10-31T17:52:35.241Z,6.75
2022-10-31T17:55:04.295Z,6.95
2022-10-31T17:57:34.282Z,10.00
2022-10-31T18:00:01.811Z,6.55
2022-10-31T18:02:29.441Z,10.48
2022-10-31T18:04:56.974Z,9.25
2022-10-31T18:07:24.487Z,14.55
2022-10-31T18:09:51.978Z,11.75
2022-10-31T18:12:21.094Z,17.20
2022-10-31T18:14:48.789Z,12.65
2022-10-31T18:17:16.381Z,11.05
2022-10-31T18:19:43.893Z,12.32
2022-10-31T18:22:11.369Z,12.07
2022-10-31T18:24:38.936Z,14.43
2022-10-31T18:27:06.957Z,16.23
2022-10-31T18:29:35.870Z,10.60
2022-10-31T18:32:08.371Z,12.05
2022-10-31T18:34:36.970Z,11.95
2022-10-31T18:37:04.676Z,11.18
2022-10-31T18:39:32.180Z,12.70
2022-10-31T18:41:59.669Z,11.18
2022-10-31T18:44:27.790Z,8.93
2022-10-31T18:46:56.629Z,10.18
2022-10-31T18:49:24.389Z,8.02
2022-10-31T18:51:52.409Z,9.40
2022-10-31T18:54:19.981Z,7.30
2022-10-31T18:56:48.761Z,9.48
2022-10-31T18:59:16.497Z,8.20
2022-10-31T19:01:44.362Z,8.05
2022-10-31T19:04:13.332Z,8.15
2022-10-31T19:06:41.094Z,6.50
2022-10-31T19:09:09.975Z,5.50
2022-10-31T19:11:38.615Z,7.65
2022-10-31T19:14:08.254Z,7.68
2022-10-31T19:16:36.125Z,6.53
2022-10-31T19:19:03.854Z,8.43
2022-10-31T19:21:32.689Z,7.25
2022-10-31T19:24:01.257Z,13.55
2022-10-31T19:26:29.517Z,7.13
2022-10-31T19:28:57.617Z,5.97
2022-10-31T19:31:25.584Z,7.22
2022-10-31T19:33:53.110Z,6.10
2022-10-31T19:36:21.888Z,5.93
2022-10-31T19:38:52.176Z,5.10
2022-10-31T19:41:21.580Z,4.78
2022-10-31T19:43:50.020Z,5.90
2022-10-31T19:48:55.522Z,6.97
2022-10-31T19:51:23.218Z,9.68
2022-10-31T19:53:52.165Z,38.47
2022-10-31T19:56:21.537Z,14.38
2022-10-31T19:58:49.387Z,12.63
2022-10-31T20:01:20.221Z,8.18
2022-10-31T20:03:49.576Z,8.02
2022-10-31T20:06:23.113Z,8.02
2022-10-31T20:08:52.345Z,8.10
2022-10-31T20:11:20.144Z,6.60
2022-10-31T20:13:47.649Z,5.82
2022-10-31T20:16:16.833Z,6.60
2022-10-31T20:18:45.162Z,6.93
2022-10-31T20:23:46.305Z,5.30
2022-10-31T20:26:18.116Z,7.13
2022-10-31T20:28:46.683Z,7.97
2022-10-31T20:33:44.993Z,12.88
2022-10-31T20:36:14.663Z,9.90
2022-10-31T20:38:43.329Z,10.85
2022-10-31T20:41:12.306Z,9.23
2022-10-31T20:43:41.246Z,10.25
2022-10-31T20:46:12.161Z,11.23
2022-10-31T20:48:39.680Z,10.07
2022-10-31T20:51:11.017Z,7.22
2022-10-31T20:53:39.173Z,8.13
2022-10-31T20:56:08.932Z,7.30
2022-10-31T20:58:37.200Z,7.18
2022-10-31T21:01:08.949Z,8.60
2022-10-31T21:03:36.576Z,7.25
2022-10-31T21:06:05.957Z,6.13
2022-10-31T21:08:33.982Z,10.10
2022-10-31T21:11:06.253Z,9.80
2022-10-31T21:13:40.556Z,9.02
2022-10-31T21:16:12.748Z,8.95
2022-10-31T21:18:41.789Z,6.72
2022-10-31T21:21:10.216Z,7.55
2022-10-31T21:23:38.249Z,9.45
2022-10-31T21:26:07.065Z,8.90
2022-10-31T21:28:34.674Z,10.88
2022-10-31T21:31:07.317Z,10.18
2022-10-31T21:33:36.896Z,10.98
2022-10-31T21:36:05.236Z,11.48
2022-10-31T21:38:33.725Z,11.55
2022-10-31T21:43:29.916Z,9.70
2022-10-31T21:46:03.350Z,11.88
2022-10-31T21:48:30.853Z,14.20
2022-10-31T21:51:03.493Z,10.82
2022-10-31T21:53:48.852Z,12.95
2022-10-31T21:56:16.356Z,11.57
2022-10-31T21:58:43.836Z,11.55
2022-10-31T22:01:11.509Z,12.80
2022-10-31T22:03:40.558Z,13.23
2022-10-31T22:06:11.157Z,10.27
2022-10-31T22:08:40.456Z,13.02
2022-10-31T22:11:10.184Z,11.38
2022-10-31T22:13:38.396Z,10.73
2022-10-31T22:16:07.772Z,16.85
2022-10-31T22:18:35.736Z,14.75
2022-10-31T22:21:03.737Z,18.27
2022-10-31T22:23:33.312Z,11.32
2022-10-31T22:26:04.258Z,13.93
2022-10-31T22:28:32.020Z,17.52
2022-10-31T22:31:00.326Z,17.13
2022-10-31T22:33:27.817Z,14.60
2022-10-31T22:35:55.313Z,16.80
2022-10-31T22:38:22.780Z,14.45
2022-10-31T22:40:51.572Z,10.15
2022-10-31T22:43:19.052Z,14.88
2022-10-31T22:45:55.045Z,15.95
2022-10-31T22:48:22.570Z,17.08
2022-10-31T22:50:50.061Z,28.08
2022-10-31T22:53:17.527Z,23.70
2022-10-31T22:55:45.052Z,27.70
2022-10-31T22:58:13.887Z,24.48
2022-10-31T23:00:41.389Z,23.23
2022-10-31T23:03:09.065Z,21.75
2022-10-31T23:05:36.528Z,20.60
2022-10-31T23:08:04.406Z,20.17
2022-10-31T23:10:34.107Z,19.30
2022-10-31T23:13:19.151Z,18.50
2022-10-31T23:15:48.008Z,16.15
2022-10-31T23:18:36.678Z,19.08
2022-10-31T23:21:03.812Z,18.17
2022-10-31T23:23:34.509Z,16.80
2022-10-31T23:26:19.744Z,15.48
2022-10-31T23:28:47.691Z,15.35
2022-10-31T23:31:16.521Z,13.95
2022-10-31T23:33:43.991Z,15.10
2022-10-31T23:36:11.452Z,12.63
2022-10-31T23:38:38.925Z,14.82
2022-10-31T23:41:06.385Z,15.23
2022-10-31T23:43:33.848Z,15.80
2022-10-31T23:46:01.325Z,12.20
2022-10-31T23:48:30.128Z,13.30
2022-10-31T23:50:57.586Z,14.63
2022-10-31T23:53:25.204Z,13.23
2022-10-31T23:55:55.592Z,12.60
2022-10-31T23:58:23.119Z,14.52
